Kristin D — C6XA6 — position and weather

sailwx.info

Track history (hours):
 
Tides and Currents Weather Stations Pressure Air Temp Water Temp Dewpoint Dewpoint Depression Visibility Wind Speed Wind Dir Waves Ship Positions

Kristin D

Last reported at 2016-Jun-25 19:27 UTC. Time now 2016-Jun-25 21:31 UTC.
Position N 63°06' E 007°46'.

Length 90 m; draft 3.7 m.

Type: Cargo ship. MMSI: 311003700.

Date/timePositionNaut miles runAvg speedWind from/ knotsBaromVisibWave heightAir tempDewpointWater temp
2016-Jun-25 19:27N 63°06' E 007°46'0 0.0
2016-Jun-25 18:27N 63°06' E 007°46'0 0.0
2016-Jun-25 11:27N 63°06' E 007°46'0 0.0
2016-Jun-25 10:28N 63°06' E 007°46'250 7.0
2016-Jun-23 22:32N 59°11' E 004°47'9 9.2
2016-Jun-23 21:33N 59°04' E 004°56'10 9.7
2016-Jun-23 20:33N 58°56' E 005°06'10 9.9
2016-Jun-23 19:33N 58°47' E 005°16'10 9.9
2016-Jun-23 18:33N 58°39' E 005°27'10 9.6
2016-Jun-23 17:33N 58°31' E 005°36'10 9.7
2016-Jun-23 16:33N 58°24' E 005°49'1010.0
2016-Jun-23 15:33N 58°17' E 006°04'9 9.2
2016-Jun-23 14:33N 58°11' E 006°17'1010.0
2016-Jun-23 13:33N 58°05' E 006°31'1010.1
2016-Jun-23 12:33N 57°60' E 006°48'10 9.8
2016-Jun-23 11:33N 57°56' E 007°05'6210.3
2016-Jun-23 05:30N 57°53' E 009°03'1010.5
2016-Jun-23 04:33N 57°52' E 009°21'2410.9
2016-Jun-23 02:23N 57°50' E 010°06'1310.7
2016-Jun-23 01:12N 57°49' E 010°29'710.5
2016-Jun-23 00:32N 57°49' E 010°42'7 7.1
2016-Jun-22 23:32N 57°42' E 010°37'0 0.1
2016-Jun-22 22:18N 57°42' E 010°37'6 8.0
2016-Jun-22 21:32N 57°47' E 010°44'1212.3
2016-Jun-22 20:33N 57°59' E 010°42'1212.3
2016-Jun-22 19:33N 58°11' E 010°41'1211.7
2016-Jun-22 18:33N 58°23' E 010°40'1111.3
2016-Jun-22 17:33N 58°34' E 010°38'1010.5
2016-Jun-22 16:33N 58°45' E 010°37'1110.5
2016-Jun-22 15:33N 58°55' E 010°36'1110.7
2016-Jun-22 14:34N 59°06' E 010°34'1110.8
2016-Jun-22 13:33N 59°17' E 010°36'1111.3
2016-Jun-22 12:33N 59°28' E 010°34'1111.3
2016-Jun-22 11:33N 59°39' E 010°37'1110.7
2016-Jun-22 10:33N 59°50' E 010°35'  
2016-Jun-18 20:33N 59°52' E 010°41'1110.7
2016-Jun-18 19:33N 59°42' E 010°36'1211.6
2016-Jun-18 18:33N 59°30' E 010°35'1211.9
2016-Jun-18 17:33N 59°19' E 010°34'1211.8
2016-Jun-18 16:33N 59°07' E 010°36'1110.8
2016-Jun-18 15:33N 58°57' E 010°26'1111.5
2016-Jun-18 14:33N 58°51' E 010°08'4810.9
2016-Jun-18 10:10N 58°21' E 008°55'711.1
2016-Jun-18 09:33N 58°17' E 008°45'1111.0
2016-Jun-18 08:33N 58°10' E 008°29'1110.8
2016-Jun-18 07:33N 58°04' E 008°12'2311.4
2016-Jun-18 05:33N 57°56' E 007°32'1110.9
2016-Jun-18 04:33N 57°56' E 007°11'1111.1
2016-Jun-18 03:33N 57°59' E 006°51'1211.4
2016-Jun-18 02:31N 58°03' E 006°30'1111.6
2016-Jun-18 01:33N 58°11' E 006°15'1211.7
2016-Jun-18 00:33N 58°19' E 005°59'1111.4
2016-Jun-17 23:33N 58°26' E 005°43'1111.2
2016-Jun-17 22:33N 58°35' E 005°30'1110.5
2016-Jun-17 21:33N 58°44' E 005°19'1010.0
2016-Jun-17 20:33N 58°52' E 005°08'1010.1
2016-Jun-17 19:33N 59°01' E 004°59'1111.2
2016-Jun-17 18:33N 59°11' E 004°47'2510.5
2016-Jun-17 16:09N 59°36' E 004°40'1811.0
2016-Jun-17 14:30N 59°54' E 004°36'11810.8
2016-Jun-17 03:33N 61°52' E 004°37'1211.3
2016-Jun-17 02:30N 62°02' E 004°47'1111.3
2016-Jun-17 01:33N 62°12' E 004°58'16511.0
2016-Jun-16 10:31N 64°26' E 008°31'14210.8
2016-Jun-15 21:21N 66°16' E 012°06'910.9
2016-Jun-15 20:33N 66°15' E 012°28'  
Track history (hours):
 
Tides and Currents Weather Stations Pressure Air Temp Water Temp Dewpoint Dewpoint Depression Visibility Wind Speed Wind Dir Waves Ship Positions

Kristin D

Last reported at 2016-Jun-25 19:27 UTC. Time now 2016-Jun-25 21:31 UTC.
Position N 63°06' E 007°46'.

Length 90 m; draft 3.7 m.

Type: Cargo ship. MMSI: 311003700.

Date/timePositionNaut miles runAvg speedWind from/ knotsBaromVisibWave heightAir tempDewpointWater temp
2016-Jun-25 19:27N 63°06' E 007°46'0 0.0
2016-Jun-25 18:27N 63°06' E 007°46'0 0.0
2016-Jun-25 11:27N 63°06' E 007°46'0 0.0
2016-Jun-25 10:28N 63°06' E 007°46'250 7.0
2016-Jun-23 22:32N 59°11' E 004°47'9 9.2
2016-Jun-23 21:33N 59°04' E 004°56'10 9.7
2016-Jun-23 20:33N 58°56' E 005°06'10 9.9
2016-Jun-23 19:33N 58°47' E 005°16'10 9.9
2016-Jun-23 18:33N 58°39' E 005°27'10 9.6
2016-Jun-23 17:33N 58°31' E 005°36'10 9.7
2016-Jun-23 16:33N 58°24' E 005°49'1010.0
2016-Jun-23 15:33N 58°17' E 006°04'9 9.2
2016-Jun-23 14:33N 58°11' E 006°17'1010.0
2016-Jun-23 13:33N 58°05' E 006°31'1010.1
2016-Jun-23 12:33N 57°60' E 006°48'10 9.8
2016-Jun-23 11:33N 57°56' E 007°05'6210.3
2016-Jun-23 05:30N 57°53' E 009°03'1010.5
2016-Jun-23 04:33N 57°52' E 009°21'2410.9
2016-Jun-23 02:23N 57°50' E 010°06'1310.7
2016-Jun-23 01:12N 57°49' E 010°29'710.5
2016-Jun-23 00:32N 57°49' E 010°42'7 7.1
2016-Jun-22 23:32N 57°42' E 010°37'0 0.1
2016-Jun-22 22:18N 57°42' E 010°37'6 8.0
2016-Jun-22 21:32N 57°47' E 010°44'1212.3
2016-Jun-22 20:33N 57°59' E 010°42'1212.3
2016-Jun-22 19:33N 58°11' E 010°41'1211.7
2016-Jun-22 18:33N 58°23' E 010°40'1111.3
2016-Jun-22 17:33N 58°34' E 010°38'1010.5
2016-Jun-22 16:33N 58°45' E 010°37'1110.5
2016-Jun-22 15:33N 58°55' E 010°36'1110.7
2016-Jun-22 14:34N 59°06' E 010°34'1110.8
2016-Jun-22 13:33N 59°17' E 010°36'1111.3
2016-Jun-22 12:33N 59°28' E 010°34'1111.3
2016-Jun-22 11:33N 59°39' E 010°37'1110.7
2016-Jun-22 10:33N 59°50' E 010°35'  
2016-Jun-18 20:33N 59°52' E 010°41'1110.7
2016-Jun-18 19:33N 59°42' E 010°36'1211.6
2016-Jun-18 18:33N 59°30' E 010°35'1211.9
2016-Jun-18 17:33N 59°19' E 010°34'1211.8
2016-Jun-18 16:33N 59°07' E 010°36'1110.8
2016-Jun-18 15:33N 58°57' E 010°26'1111.5
2016-Jun-18 14:33N 58°51' E 010°08'4810.9
2016-Jun-18 10:10N 58°21' E 008°55'711.1
2016-Jun-18 09:33N 58°17' E 008°45'1111.0
2016-Jun-18 08:33N 58°10' E 008°29'1110.8
2016-Jun-18 07:33N 58°04' E 008°12'2311.4
2016-Jun-18 05:33N 57°56' E 007°32'1110.9
2016-Jun-18 04:33N 57°56' E 007°11'1111.1
2016-Jun-18 03:33N 57°59' E 006°51'1211.4
2016-Jun-18 02:31N 58°03' E 006°30'1111.6
2016-Jun-18 01:33N 58°11' E 006°15'1211.7
2016-Jun-18 00:33N 58°19' E 005°59'1111.4
2016-Jun-17 23:33N 58°26' E 005°43'1111.2
2016-Jun-17 22:33N 58°35' E 005°30'1110.5
2016-Jun-17 21:33N 58°44' E 005°19'1010.0
2016-Jun-17 20:33N 58°52' E 005°08'1010.1
2016-Jun-17 19:33N 59°01' E 004°59'1111.2
2016-Jun-17 18:33N 59°11' E 004°47'2510.5
2016-Jun-17 16:09N 59°36' E 004°40'1811.0
2016-Jun-17 14:30N 59°54' E 004°36'11810.8
2016-Jun-17 03:33N 61°52' E 004°37'1211.3
2016-Jun-17 02:30N 62°02' E 004°47'1111.3
2016-Jun-17 01:33N 62°12' E 004°58'16511.0
2016-Jun-16 10:31N 64°26' E 008°31'14210.8
2016-Jun-15 21:21N 66°16' E 012°06'910.9
2016-Jun-15 20:33N 66°15' E 012°28'  

Dump ship's entire track history